createdAt,value
2018-02-04T00:00:27.859Z,4.86
2018-02-04T00:02:58.970Z,4.87
2018-02-04T00:05:30.040Z,4.84
2018-02-04T00:08:01.252Z,4.83
2018-02-04T00:10:32.350Z,4.82
2018-02-04T00:13:03.441Z,4.79
2018-02-04T00:15:34.490Z,4.79
2018-02-04T00:18:05.598Z,4.84
2018-02-04T00:20:36.655Z,4.93
2018-02-04T00:23:07.764Z,5.03
2018-02-04T00:25:38.892Z,5.13
2018-02-04T00:28:10.056Z,5.19
2018-02-04T00:30:41.199Z,5.19
2018-02-04T00:33:12.275Z,5.22
2018-02-04T00:35:43.354Z,5.24
2018-02-04T00:38:14.498Z,5.29
2018-02-04T00:40:45.591Z,5.30
2018-02-04T00:43:16.691Z,5.27
2018-02-04T00:45:47.735Z,5.27
2018-02-04T00:48:18.810Z,5.23
2018-02-04T00:50:49.853Z,5.27
2018-02-04T00:53:20.935Z,5.34
2018-02-04T00:55:52.022Z,5.41
2018-02-04T00:58:23.091Z,5.30
2018-02-04T01:00:54.148Z,5.28
2018-02-04T01:03:25.274Z,5.32
2018-02-04T01:05:56.319Z,5.32
2018-02-04T01:08:27.415Z,5.29
2018-02-04T01:10:58.595Z,5.24
2018-02-04T01:13:29.662Z,5.26
2018-02-04T01:16:00.757Z,5.27
2018-02-04T01:18:31.790Z,5.30
2018-02-04T01:21:02.882Z,5.32
2018-02-04T01:23:33.945Z,5.33
2018-02-04T01:26:05.102Z,5.34
2018-02-04T01:28:36.154Z,5.34
2018-02-04T01:31:07.361Z,5.36
2018-02-04T01:33:38.447Z,5.36
2018-02-04T01:36:09.530Z,5.36
2018-02-04T01:38:40.631Z,5.33
2018-02-04T01:41:11.741Z,5.26
2018-02-04T01:43:42.806Z,5.20
2018-02-04T01:46:13.905Z,5.20
2018-02-04T01:48:44.946Z,5.23
2018-02-04T01:51:16.093Z,5.26
2018-02-04T01:53:47.174Z,5.31
2018-02-04T01:56:18.258Z,5.36
2018-02-04T01:58:49.304Z,5.36
2018-02-04T02:01:20.427Z,5.39
2018-02-04T02:03:51.483Z,5.39
2018-02-04T02:06:22.568Z,5.36
2018-02-04T02:08:53.621Z,5.31
2018-02-04T02:11:24.678Z,5.33
2018-02-04T02:13:55.759Z,5.35
2018-02-04T02:16:26.847Z,5.41
2018-02-04T02:18:57.939Z,5.38
2018-02-04T02:21:29.010Z,5.27
2018-02-04T02:24:00.131Z,5.17
2018-02-04T02:26:31.198Z,5.11
2018-02-04T02:29:02.316Z,5.00
2018-02-04T02:31:33.399Z,4.97
2018-02-04T02:34:04.503Z,4.95
2018-02-04T02:36:35.523Z,4.90
2018-02-04T02:39:06.634Z,4.87
2018-02-04T02:41:37.704Z,4.80
2018-02-04T02:44:08.827Z,4.71
2018-02-04T02:46:39.869Z,4.65
2018-02-04T02:49:11.025Z,4.65
2018-02-04T02:51:42.086Z,4.66
2018-02-04T02:54:13.191Z,4.61
2018-02-04T02:56:44.255Z,4.57
2018-02-04T02:59:15.375Z,4.49
2018-02-04T03:01:46.443Z,4.48
2018-02-04T03:04:17.542Z,4.49
2018-02-04T03:06:48.612Z,4.46
2018-02-04T03:09:19.718Z,4.39
2018-02-04T03:11:50.764Z,4.36
2018-02-04T03:14:21.880Z,4.36
2018-02-04T03:16:52.962Z,4.34
2018-02-04T03:19:24.095Z,4.36
2018-02-04T03:21:55.178Z,4.36
2018-02-04T03:24:26.649Z,4.35
2018-02-04T03:26:57.694Z,4.36
2018-02-04T03:29:28.801Z,4.34
2018-02-04T03:31:59.876Z,4.37
2018-02-04T03:34:31.124Z,4.38
2018-02-04T03:37:02.230Z,4.40
2018-02-04T03:39:33.298Z,4.42
2018-02-04T03:42:04.349Z,4.45
2018-02-04T03:44:35.426Z,4.41
2018-02-04T03:47:06.511Z,4.44
2018-02-04T03:49:37.620Z,4.44
2018-02-04T03:52:08.693Z,4.43
2018-02-04T03:54:39.814Z,4.43
2018-02-04T03:57:10.908Z,4.40
2018-02-04T03:59:41.995Z,4.42
2018-02-04T04:02:13.671Z,4.45
2018-02-04T04:04:44.723Z,4.47
2018-02-04T04:07:15.853Z,4.52
2018-02-04T04:09:46.909Z,4.59
2018-02-04T04:12:18.171Z,4.69
2018-02-04T04:14:49.243Z,4.78
2018-02-04T04:17:20.290Z,4.78
2018-02-04T04:19:51.357Z,4.78
2018-02-04T04:22:22.449Z,4.79
2018-02-04T04:24:53.539Z,4.86
2018-02-04T04:27:24.646Z,4.90
2018-02-04T04:29:55.704Z,4.94
2018-02-04T04:32:26.795Z,4.96
2018-02-04T04:34:57.877Z,4.98
2018-02-04T04:37:28.961Z,4.94
2018-02-04T04:40:00.046Z,4.97
2018-02-04T04:42:31.327Z,4.96
2018-02-04T04:45:02.386Z,4.96
2018-02-04T04:47:33.463Z,4.92
2018-02-04T04:50:04.531Z,4.90
2018-02-04T04:52:35.673Z,4.94
2018-02-04T04:55:06.714Z,4.93
2018-02-04T04:57:37.766Z,4.84
2018-02-04T05:00:08.908Z,4.79
2018-02-04T05:02:39.958Z,4.79
2018-02-04T05:05:11.012Z,4.78
2018-02-04T05:07:42.088Z,4.74
2018-02-04T05:10:13.151Z,4.68
2018-02-04T05:12:44.207Z,4.62
2018-02-04T05:15:15.292Z,4.53
2018-02-04T05:17:46.364Z,4.46
2018-02-04T05:20:17.468Z,4.44
2018-02-04T05:22:48.507Z,4.39
2018-02-04T05:25:19.615Z,4.39
2018-02-04T05:27:50.663Z,4.46
2018-02-04T05:30:22.079Z,4.50
2018-02-04T05:32:53.140Z,4.49
2018-02-04T05:35:24.234Z,4.49
2018-02-04T05:37:55.263Z,4.49
2018-02-04T05:40:26.357Z,4.50
2018-02-04T05:42:57.443Z,4.49
2018-02-04T05:45:28.536Z,4.49
2018-02-04T05:47:59.588Z,4.57
2018-02-04T05:50:30.735Z,4.67
2018-02-04T05:53:01.815Z,4.71
2018-02-04T05:55:32.960Z,4.70
2018-02-04T05:58:04.776Z,4.68
2018-02-04T06:00:35.854Z,4.69
2018-02-04T06:03:06.894Z,4.69
2018-02-04T06:05:37.971Z,4.70
2018-02-04T06:08:09.029Z,4.74
2018-02-04T06:10:40.115Z,4.78
2018-02-04T06:13:11.199Z,4.87
2018-02-04T06:15:42.234Z,4.92
2018-02-04T06:18:13.309Z,4.88
2018-02-04T06:20:44.352Z,4.81
2018-02-04T06:23:16.405Z,4.74
2018-02-04T06:25:47.488Z,4.69
2018-02-04T06:28:18.622Z,4.71
2018-02-04T06:30:49.690Z,4.75
2018-02-04T06:33:20.797Z,4.87
2018-02-04T06:35:51.874Z,4.93
2018-02-04T06:38:22.976Z,4.95
2018-02-04T06:40:54.057Z,4.94
2018-02-04T06:43:25.142Z,4.93
2018-02-04T06:45:56.203Z,4.96
2018-02-04T06:48:27.258Z,4.95
2018-02-04T06:50:58.308Z,4.94
2018-02-04T06:53:29.362Z,4.92
2018-02-04T06:56:00.426Z,4.93
2018-02-04T06:58:31.449Z,4.99
2018-02-04T07:01:02.507Z,5.04
2018-02-04T07:03:33.546Z,5.03
2018-02-04T07:06:04.614Z,5.01
2018-02-04T07:08:35.672Z,4.98
2018-02-04T07:11:06.851Z,4.96
2018-02-04T07:13:37.911Z,4.99
2018-02-04T07:16:08.975Z,5.04
2018-02-04T07:18:40.036Z,5.00
2018-02-04T07:21:11.092Z,4.96
2018-02-04T07:23:42.195Z,4.94
2018-02-04T07:26:13.264Z,4.95
2018-02-04T07:28:44.406Z,5.01
2018-02-04T07:31:15.444Z,5.17
2018-02-04T07:33:47.626Z,5.34
2018-02-04T07:36:18.670Z,5.50
2018-02-04T07:38:49.733Z,5.67
2018-02-04T07:41:20.831Z,5.82
2018-02-04T07:43:51.920Z,6.01
2018-02-04T07:46:23.012Z,6.15
2018-02-04T07:48:54.102Z,6.47
2018-02-04T07:51:25.136Z,6.77
2018-02-04T07:53:56.222Z,6.93
2018-02-04T07:56:27.250Z,7.04
2018-02-04T07:58:58.329Z,7.11
2018-02-04T08:01:29.398Z,7.23
2018-02-04T08:04:00.469Z,7.21
2018-02-04T08:06:31.524Z,7.14
2018-02-04T08:09:02.654Z,7.16
2018-02-04T08:11:33.740Z,7.09
2018-02-04T08:14:04.840Z,6.96
2018-02-04T08:16:35.979Z,6.74
2018-02-04T08:19:07.026Z,6.71
2018-02-04T08:21:38.105Z,6.78
2018-02-04T08:24:09.186Z,6.87
2018-02-04T08:26:40.211Z,7.07
2018-02-04T08:29:11.269Z,6.98
2018-02-04T08:31:42.338Z,6.97
2018-02-04T08:34:13.424Z,7.13
2018-02-04T08:36:44.659Z,7.30
2018-02-04T08:39:15.739Z,7.22
2018-02-04T08:41:46.787Z,7.23
2018-02-04T08:44:17.808Z,7.30
2018-02-04T08:46:48.894Z,7.46
2018-02-04T08:49:19.954Z,7.70
2018-02-04T08:51:51.026Z,8.05
2018-02-04T08:54:22.326Z,8.43
2018-02-04T08:56:53.390Z,8.90
2018-02-04T08:59:24.488Z,9.23
2018-02-04T09:01:55.615Z,9.77
2018-02-04T09:04:26.689Z,10.14
2018-02-04T09:06:57.763Z,10.90
2018-02-04T09:09:29.050Z,12.05
2018-02-04T09:12:00.138Z,13.26
2018-02-04T09:17:02.159Z,16.09
2018-02-04T09:19:33.182Z,16.63
2018-02-04T09:22:04.264Z,16.00
2018-02-04T09:24:35.353Z,14.72
2018-02-04T09:27:06.418Z,13.44
2018-02-04T09:29:37.485Z,12.67
2018-02-04T09:32:08.614Z,12.38
2018-02-04T09:34:39.736Z,12.15
2018-02-04T09:37:10.821Z,11.86
2018-02-04T09:39:41.898Z,11.52
2018-02-04T09:42:13.006Z,11.19
2018-02-04T09:44:44.118Z,10.71
2018-02-04T09:47:15.195Z,10.54
2018-02-04T09:49:46.323Z,10.51
2018-02-04T09:52:17.392Z,10.29
2018-02-04T09:54:48.488Z,10.13
2018-02-04T09:57:19.557Z,10.05
2018-02-04T09:59:50.686Z,10.21
2018-02-04T10:02:21.754Z,10.27
2018-02-04T10:04:52.843Z,10.06
2018-02-04T10:07:23.923Z,10.06
2018-02-04T10:09:54.963Z,10.06
2018-02-04T10:12:26.063Z,10.10
2018-02-04T10:14:57.155Z,10.16
2018-02-04T10:17:28.248Z,10.27
2018-02-04T10:19:59.300Z,10.72
2018-02-04T10:22:30.477Z,11.36
2018-02-04T10:25:01.557Z,11.73
2018-02-04T10:27:32.829Z,12.06
2018-02-04T10:30:03.907Z,12.46
2018-02-04T10:32:34.954Z,13.40
2018-02-04T10:35:06.097Z,14.56
2018-02-04T10:37:37.122Z,15.08
2018-02-04T10:40:09.024Z,15.43
2018-02-04T10:42:40.083Z,15.65
2018-02-04T10:45:11.129Z,15.81
2018-02-04T10:47:42.218Z,15.48
2018-02-04T10:50:13.292Z,15.58
2018-02-04T10:52:44.315Z,16.27
2018-02-04T10:55:15.394Z,17.86
2018-02-04T10:57:46.484Z,19.28
2018-02-04T11:00:17.544Z,19.88
2018-02-04T11:02:48.777Z,20.48
2018-02-04T11:05:19.836Z,20.81
2018-02-04T11:07:50.986Z,20.74
2018-02-04T11:10:22.088Z,19.43
2018-02-04T11:12:53.126Z,18.10
2018-02-04T11:15:24.221Z,17.11
2018-02-04T11:17:55.320Z,15.91
2018-02-04T11:20:26.362Z,14.62
2018-02-04T11:22:57.443Z,13.86
2018-02-04T11:25:28.805Z,13.22
2018-02-04T11:27:59.864Z,12.64
2018-02-04T11:30:31.039Z,12.21
2018-02-04T11:33:02.127Z,12.05
2018-02-04T11:35:33.211Z,12.25
2018-02-04T11:38:04.264Z,13.12
2018-02-04T11:40:35.330Z,13.69
2018-02-04T11:43:06.354Z,13.61
2018-02-04T11:45:37.426Z,12.99
2018-02-04T11:48:08.498Z,12.35
2018-02-04T11:50:39.598Z,12.02
2018-02-04T11:53:10.731Z,11.98
2018-02-04T11:55:41.842Z,11.83
2018-02-04T11:58:12.971Z,11.35
2018-02-04T12:00:44.070Z,10.83
2018-02-04T12:03:15.209Z,10.46
2018-02-04T12:05:46.299Z,10.02
2018-02-04T12:08:17.378Z,9.87
2018-02-04T12:10:48.445Z,9.62
2018-02-04T12:13:19.548Z,9.34
2018-02-04T12:15:50.674Z,9.01
2018-02-04T12:18:21.750Z,8.86
2018-02-04T12:20:52.812Z,8.95
2018-02-04T12:23:23.894Z,9.22
2018-02-04T12:32:40.034Z,9.23
2018-02-04T12:35:11.110Z,9.64
2018-02-04T12:37:42.207Z,10.15
2018-02-04T12:40:13.306Z,10.84
2018-02-04T12:42:44.357Z,11.38
2018-02-04T12:45:15.426Z,11.85
2018-02-04T12:47:46.524Z,11.95
2018-02-04T12:50:17.649Z,11.91
2018-02-04T12:52:48.798Z,11.89
2018-02-04T12:55:19.865Z,12.13
2018-02-04T12:57:50.957Z,12.24
2018-02-04T13:00:22.043Z,11.91
2018-02-04T13:02:53.096Z,11.79
2018-02-04T13:05:24.139Z,11.60
2018-02-04T13:07:55.193Z,11.01
2018-02-04T13:10:26.282Z,10.86
2018-02-04T13:12:57.567Z,11.02
2018-02-04T13:15:28.635Z,10.94
2018-02-04T13:17:59.709Z,11.08
2018-02-04T13:20:30.791Z,11.08
2018-02-04T13:23:01.908Z,11.29
2018-02-04T13:25:33.176Z,11.61
2018-02-04T13:28:04.262Z,11.92
2018-02-04T13:30:35.353Z,11.83
2018-02-04T13:33:06.433Z,11.53
2018-02-04T13:35:37.779Z,11.63
2018-02-04T13:38:08.862Z,11.78
2018-02-04T13:40:39.950Z,11.74
2018-02-04T13:43:11.318Z,11.78
2018-02-04T13:45:42.364Z,11.82
2018-02-04T13:48:13.444Z,11.84
2018-02-04T13:50:44.543Z,11.64
2018-02-04T13:53:15.700Z,11.79
2018-02-04T13:55:46.794Z,11.82
2018-02-04T13:58:17.903Z,11.98
2018-02-04T14:00:48.954Z,12.18
2018-02-04T14:03:20.070Z,12.28
2018-02-04T14:05:51.243Z,12.19
2018-02-04T14:08:22.349Z,11.99
2018-02-04T14:10:53.456Z,11.89
2018-02-04T14:13:24.581Z,12.03
2018-02-04T14:15:55.655Z,11.82
2018-02-04T14:18:26.728Z,11.66
2018-02-04T14:20:57.828Z,11.81
2018-02-04T14:23:28.943Z,11.74
2018-02-04T14:26:00.014Z,11.84
2018-02-04T14:28:31.095Z,11.83
2018-02-04T14:31:02.178Z,11.80
2018-02-04T14:33:33.279Z,11.74
2018-02-04T14:36:04.590Z,11.49
2018-02-04T14:38:35.670Z,11.51
2018-02-04T14:41:06.789Z,11.18
2018-02-04T14:43:37.933Z,10.77
2018-02-04T14:46:09.020Z,10.79
2018-02-04T14:48:40.066Z,10.84
2018-02-04T14:51:11.086Z,11.04
2018-02-04T14:53:42.189Z,11.20
2018-02-04T14:56:13.352Z,11.25
2018-02-04T14:58:44.468Z,11.25
2018-02-04T15:01:15.558Z,11.29
2018-02-04T15:03:46.639Z,11.40
2018-02-04T15:06:17.730Z,11.33
2018-02-04T15:08:48.782Z,11.14
2018-02-04T15:11:19.854Z,10.81
2018-02-04T15:13:51.074Z,10.44
2018-02-04T15:16:22.093Z,10.33
2018-02-04T15:18:53.177Z,10.23
2018-02-04T15:21:24.262Z,10.25
2018-02-04T15:23:55.721Z,10.24
2018-02-04T15:26:26.903Z,10.27
2018-02-04T15:28:57.995Z,9.70
2018-02-04T15:31:29.069Z,9.17
2018-02-04T15:34:00.141Z,8.78
2018-02-04T15:36:31.190Z,8.57
2018-02-04T15:39:02.244Z,8.49
2018-02-04T15:41:33.409Z,8.34
2018-02-04T15:44:04.469Z,7.97
2018-02-04T15:46:35.552Z,7.45
2018-02-04T15:49:06.702Z,7.13
2018-02-04T15:51:37.806Z,6.86
2018-02-04T15:54:08.878Z,6.77
2018-02-04T15:56:39.985Z,6.72
2018-02-04T15:59:17.928Z,6.68
2018-02-04T16:01:49.038Z,6.57
2018-02-04T16:04:20.129Z,6.42
2018-02-04T16:06:51.210Z,6.02
2018-02-04T16:09:22.317Z,5.64
2018-02-04T16:11:53.400Z,5.46
2018-02-04T16:14:24.507Z,5.49
2018-02-04T16:16:55.596Z,5.39
2018-02-04T16:19:26.697Z,5.32
2018-02-04T16:21:57.762Z,5.27
2018-02-04T16:24:28.878Z,5.19
2018-02-04T16:26:59.981Z,5.00
2018-02-04T16:29:31.069Z,4.85
2018-02-04T16:32:02.190Z,4.70
2018-02-04T16:34:33.295Z,4.59
2018-02-04T16:37:04.358Z,4.57
2018-02-04T16:39:35.428Z,4.47
2018-02-04T16:42:06.508Z,4.47
2018-02-04T16:44:37.608Z,4.40
2018-02-04T16:47:08.703Z,4.39
2018-02-04T16:49:39.766Z,4.32
2018-02-04T16:52:10.858Z,4.29
2018-02-04T16:54:41.933Z,4.30
2018-02-04T16:57:13.031Z,4.28
2018-02-04T16:59:44.618Z,4.28
2018-02-04T17:02:15.706Z,4.26
2018-02-04T17:04:46.747Z,4.20
2018-02-04T17:07:17.890Z,4.20
2018-02-04T17:09:48.950Z,4.19
2018-02-04T17:12:20.026Z,4.21
2018-02-04T17:14:51.116Z,4.18
2018-02-04T17:17:22.791Z,4.18
2018-02-04T17:19:53.913Z,4.15
2018-02-04T17:22:25.038Z,4.07
2018-02-04T17:24:56.197Z,4.06
2018-02-04T17:27:27.269Z,4.06
2018-02-04T17:29:58.358Z,4.06
2018-02-04T17:32:29.447Z,4.05
2018-02-04T17:35:00.509Z,4.00
2018-02-04T17:37:31.659Z,3.96
2018-02-04T17:40:02.756Z,3.90
2018-02-04T17:42:33.907Z,3.90
2018-02-04T17:45:05.001Z,3.90
2018-02-04T17:47:36.127Z,3.89
2018-02-04T17:50:07.221Z,3.84
2018-02-04T17:52:38.400Z,3.79
2018-02-04T17:55:09.527Z,3.77
2018-02-04T17:57:40.882Z,3.73
2018-02-04T18:00:11.998Z,3.73
2018-02-04T18:02:43.042Z,3.72
2018-02-04T18:05:14.179Z,3.71
2018-02-04T18:07:46.026Z,3.72
2018-02-04T18:10:17.182Z,3.71
2018-02-04T18:12:48.369Z,3.68
2018-02-04T18:15:19.434Z,3.63
2018-02-04T18:17:50.604Z,3.59
2018-02-04T18:20:21.645Z,3.57
2018-02-04T18:22:52.713Z,3.53
2018-02-04T18:25:23.860Z,3.50
2018-02-04T18:27:54.995Z,3.47
2018-02-04T18:30:26.185Z,3.41
2018-02-04T18:32:57.323Z,3.40
2018-02-04T18:35:28.414Z,3.35
2018-02-04T18:37:59.659Z,3.32
2018-02-04T18:40:30.767Z,3.31
2018-02-04T18:43:01.856Z,3.32
2018-02-04T18:45:32.999Z,3.28
2018-02-04T18:48:04.126Z,3.29
2018-02-04T18:50:35.302Z,3.26
2018-02-04T18:53:06.453Z,3.28
2018-02-04T18:55:37.549Z,3.29
2018-02-04T18:58:08.582Z,3.32
2018-02-04T19:00:39.636Z,3.33
2018-02-04T19:03:10.691Z,3.34
2018-02-04T19:05:41.971Z,3.36
2018-02-04T19:08:13.051Z,3.31
2018-02-04T19:10:44.195Z,3.26
2018-02-04T19:13:15.251Z,3.20
2018-02-04T19:15:46.376Z,3.16
2018-02-04T19:18:17.498Z,3.11
2018-02-04T19:20:48.606Z,3.04
2018-02-04T19:23:19.730Z,3.00
2018-02-04T19:25:50.869Z,2.99
2018-02-04T19:28:21.959Z,3.00
2018-02-04T19:30:53.101Z,3.00
2018-02-04T19:33:24.178Z,2.99
2018-02-04T19:35:55.329Z,3.02
2018-02-04T19:38:26.407Z,3.00
2018-02-04T19:40:57.531Z,3.07
2018-02-04T19:43:28.621Z,3.10
2018-02-04T19:45:59.773Z,3.16
2018-02-04T19:48:30.826Z,3.19
2018-02-04T19:51:01.972Z,3.24
2018-02-04T19:53:33.114Z,3.23
2018-02-04T19:56:04.236Z,3.23
2018-02-04T19:58:35.325Z,3.23
2018-02-04T20:01:07.035Z,3.18
2018-02-04T20:03:38.134Z,3.06
2018-02-04T20:06:09.356Z,2.92
2018-02-04T20:08:40.480Z,2.88
2018-02-04T20:11:11.603Z,2.83
2018-02-04T20:13:42.648Z,2.82
2018-02-04T20:16:13.754Z,2.78
2018-02-04T20:18:44.836Z,2.76
2018-02-04T20:21:15.906Z,2.70
2018-02-04T20:23:47.024Z,2.68
2018-02-04T20:26:18.144Z,2.64
2018-02-04T20:28:49.230Z,2.58
2018-02-04T20:31:21.023Z,2.59
2018-02-04T20:34:04.480Z,2.56
2018-02-04T20:36:35.628Z,2.49
2018-02-04T20:39:06.667Z,2.50
2018-02-04T20:41:37.785Z,2.46
2018-02-04T20:44:08.826Z,2.44
2018-02-04T20:46:39.930Z,2.41
2018-02-04T20:49:11.016Z,2.43
2018-02-04T20:51:42.153Z,2.40
2018-02-04T20:54:13.298Z,2.39
2018-02-04T20:56:44.340Z,2.28
2018-02-04T20:59:15.463Z,2.27
2018-02-04T21:01:46.525Z,2.24
2018-02-04T21:04:17.594Z,2.23
2018-02-04T21:06:48.724Z,2.15
2018-02-04T21:09:19.990Z,2.15
2018-02-04T21:11:51.030Z,2.18
2018-02-04T21:14:22.168Z,2.21
2018-02-04T21:16:53.258Z,2.21
2018-02-04T21:19:24.386Z,2.18
2018-02-04T21:21:55.498Z,2.12
2018-02-04T21:24:26.642Z,2.06
2018-02-04T21:26:57.788Z,2.04
2018-02-04T21:29:28.891Z,2.06
2018-02-04T21:31:59.958Z,2.09
2018-02-04T21:34:31.096Z,2.11
2018-02-04T21:37:02.148Z,2.13
2018-02-04T21:39:33.268Z,2.14
2018-02-04T21:42:04.338Z,2.11
2018-02-04T21:44:35.461Z,2.14
2018-02-04T21:47:06.507Z,2.09
2018-02-04T21:49:37.622Z,2.09
2018-02-04T21:52:08.676Z,2.07
2018-02-04T21:54:39.718Z,2.07
2018-02-04T21:57:10.802Z,2.08
2018-02-04T21:59:41.848Z,2.09
2018-02-04T22:02:12.974Z,2.11
2018-02-04T22:04:44.071Z,2.13
2018-02-04T22:07:15.336Z,2.12
2018-02-04T22:09:46.378Z,2.12
2018-02-04T22:12:17.479Z,2.11
2018-02-04T22:14:48.605Z,2.06
2018-02-04T22:17:19.655Z,2.05
2018-02-04T22:19:50.746Z,2.02
2018-02-04T22:22:22.016Z,2.00
2018-02-04T22:24:54.164Z,1.94
2018-02-04T22:27:25.284Z,1.94
2018-02-04T22:29:56.394Z,1.90
2018-02-04T22:32:27.468Z,1.87
2018-02-04T22:34:58.595Z,1.86
2018-02-04T22:37:29.670Z,1.85
2018-02-04T22:40:00.812Z,1.80
2018-02-04T22:42:31.876Z,1.76
2018-02-04T22:45:02.987Z,1.75
2018-02-04T22:47:34.035Z,1.74
2018-02-04T22:50:05.140Z,1.75
2018-02-04T22:52:36.260Z,1.76
2018-02-04T22:55:07.416Z,1.75
2018-02-04T22:57:38.510Z,1.76
2018-02-04T23:00:09.679Z,1.77
2018-02-04T23:02:40.824Z,1.77
2018-02-04T23:05:11.894Z,1.75
2018-02-04T23:07:42.985Z,1.71
2018-02-04T23:10:14.069Z,1.72
2018-02-04T23:12:45.147Z,1.72
2018-02-04T23:15:16.264Z,1.76
2018-02-04T23:17:47.320Z,1.74
2018-02-04T23:20:18.514Z,1.73
2018-02-04T23:22:49.539Z,1.76
2018-02-04T23:25:20.671Z,1.72
2018-02-04T23:27:51.759Z,1.72
2018-02-04T23:30:22.855Z,1.76
2018-02-04T23:32:53.891Z,1.71
2018-02-04T23:35:25.006Z,1.71
2018-02-04T23:37:56.116Z,1.66
2018-02-04T23:40:27.264Z,1.63
2018-02-04T23:42:58.360Z,1.63
2018-02-04T23:45:29.422Z,1.63
2018-02-04T23:48:00.530Z,1.62
2018-02-04T23:50:31.582Z,1.60
2018-02-04T23:53:03.670Z,1.63
2018-02-04T23:55:34.742Z,1.61
2018-02-04T23:58:05.885Z,1.61
